sensor_id;sensor_type;location;lat;lon;timestamp;temperature;humidity
6407;DHT22;3236;51.022;6.818;2022-09-20T00:01:33;10.80;99.90
6407;DHT22;3236;51.022;6.818;2022-09-20T00:04:02;11.50;99.90
6407;DHT22;3236;51.022;6.818;2022-09-20T00:06:32;10.80;99.90
6407;DHT22;3236;51.022;6.818;2022-09-20T00:08:59;11.40;99.90
6407;DHT22;3236;51.022;6.818;2022-09-20T00:11:30;11.20;99.90
6407;DHT22;3236;51.022;6.818;2022-09-20T00:13:59;11.30;99.90
6407;DHT22;3236;51.022;6.818;2022-09-20T00:16:28;11.00;99.90
6407;DHT22;3236;51.022;6.818;2022-09-20T00:18:57;11.20;99.90
6407;DHT22;3236;51.022;6.818;2022-09-20T00:21:25;11.10;99.90
6407;DHT22;3236;51.022;6.818;2022-09-20T00:23:53;10.80;99.90
6407;DHT22;3236;51.022;6.818;2022-09-20T00:28:49;10.80;99.90
6407;DHT22;3236;51.022;6.818;2022-09-20T00:31:17;11.20;99.90
6407;DHT22;3236;51.022;6.818;2022-09-20T00:33:44;11.10;99.90
6407;DHT22;3236;51.022;6.818;2022-09-20T00:36:28;10.90;99.90
6407;DHT22;3236;51.022;6.818;2022-09-20T00:38:56;11.50;99.90
6407;DHT22;3236;51.022;6.818;2022-09-20T00:41:24;11.40;99.90
6407;DHT22;3236;51.022;6.818;2022-09-20T00:43:53;11.20;99.90
6407;DHT22;3236;51.022;6.818;2022-09-20T00:46:23;10.90;99.90
6407;DHT22;3236;51.022;6.818;2022-09-20T00:48:52;11.20;99.90
6407;DHT22;3236;51.022;6.818;2022-09-20T00:51:25;11.30;99.90
6407;DHT22;3236;51.022;6.818;2022-09-20T00:53:56;11.10;99.90
6407;DHT22;3236;51.022;6.818;2022-09-20T00:56:27;11.50;99.90
6407;DHT22;3236;51.022;6.818;2022-09-20T00:59:02;11.10;99.90
6407;DHT22;3236;51.022;6.818;2022-09-20T01:01:32;10.90;99.90
6407;DHT22;3236;51.022;6.818;2022-09-20T01:03:59;11.00;99.90
6407;DHT22;3236;51.022;6.818;2022-09-20T01:06:27;10.90;99.90
6407;DHT22;3236;51.022;6.818;2022-09-20T01:08:56;11.30;99.90
6407;DHT22;3236;51.022;6.818;2022-09-20T01:13:53;11.60;99.90
6407;DHT22;3236;51.022;6.818;2022-09-20T01:16:22;11.30;99.90
6407;DHT22;3236;51.022;6.818;2022-09-20T01:18:51;11.30;99.90
6407;DHT22;3236;51.022;6.818;2022-09-20T01:21:18;11.10;99.90
6407;DHT22;3236;51.022;6.818;2022-09-20T01:23:51;11.30;99.90
6407;DHT22;3236;51.022;6.818;2022-09-20T01:29:16;11.30;99.90
6407;DHT22;3236;51.022;6.818;2022-09-20T01:31:51;11.60;99.90
6407;DHT22;3236;51.022;6.818;2022-09-20T01:34:24;11.50;99.90
6407;DHT22;3236;51.022;6.818;2022-09-20T01:36:57;11.30;99.90
6407;DHT22;3236;51.022;6.818;2022-09-20T01:39:34;11.60;99.90
6407;DHT22;3236;51.022;6.818;2022-09-20T01:42:05;11.20;99.90
6407;DHT22;3236;51.022;6.818;2022-09-20T01:44:37;11.30;99.90
6407;DHT22;3236;51.022;6.818;2022-09-20T01:47:12;11.70;99.90
6407;DHT22;3236;51.022;6.818;2022-09-20T01:49:45;11.10;99.90
6407;DHT22;3236;51.022;6.818;2022-09-20T01:52:37;11.60;99.90
6407;DHT22;3236;51.022;6.818;2022-09-20T01:55:52;11.30;99.90
6407;DHT22;3236;51.022;6.818;2022-09-20T02:08:18;11.40;99.90
6407;DHT22;3236;51.022;6.818;2022-09-20T02:11:10;11.30;99.90
6407;DHT22;3236;51.022;6.818;2022-09-20T02:14:10;11.30;99.90
6407;DHT22;3236;51.022;6.818;2022-09-20T02:16:50;11.60;99.90
6407;DHT22;3236;51.022;6.818;2022-09-20T02:19:39;11.30;99.90
6407;DHT22;3236;51.022;6.818;2022-09-20T02:22:15;10.80;99.90
6407;DHT22;3236;51.022;6.818;2022-09-20T02:24:49;11.30;99.90
6407;DHT22;3236;51.022;6.818;2022-09-20T02:27:24;11.40;99.90
6407;DHT22;3236;51.022;6.818;2022-09-20T02:30:14;11.70;99.90
6407;DHT22;3236;51.022;6.818;2022-09-20T02:33:05;11.30;99.90
6407;DHT22;3236;51.022;6.818;2022-09-20T02:35:48;11.30;99.90
6407;DHT22;3236;51.022;6.818;2022-09-20T02:38:26;11.30;99.90
6407;DHT22;3236;51.022;6.818;2022-09-20T02:44:07;11.50;99.90
6407;DHT22;3236;51.022;6.818;2022-09-20T02:46:45;11.30;99.90
6407;DHT22;3236;51.022;6.818;2022-09-20T02:52:33;11.30;99.90
6407;DHT22;3236;51.022;6.818;2022-09-20T02:55:06;11.20;99.90
6407;DHT22;3236;51.022;6.818;2022-09-20T02:57:43;11.60;99.90
6407;DHT22;3236;51.022;6.818;2022-09-20T03:00:15;11.10;99.90
6407;DHT22;3236;51.022;6.818;2022-09-20T03:02:50;11.00;99.90
6407;DHT22;3236;51.022;6.818;2022-09-20T03:05:26;10.90;99.90
6407;DHT22;3236;51.022;6.818;2022-09-20T03:08:09;11.00;99.90
6407;DHT22;3236;51.022;6.818;2022-09-20T03:10:40;11.20;99.90
6407;DHT22;3236;51.022;6.818;2022-09-20T03:13:17;11.20;99.90
6407;DHT22;3236;51.022;6.818;2022-09-20T03:16:00;11.60;99.90
6407;DHT22;3236;51.022;6.818;2022-09-20T03:18:36;11.00;99.90
6407;DHT22;3236;51.022;6.818;2022-09-20T03:21:17;11.40;99.90
6407;DHT22;3236;51.022;6.818;2022-09-20T03:23:56;10.80;99.90
6407;DHT22;3236;51.022;6.818;2022-09-20T03:26:36;11.00;99.90
6407;DHT22;3236;51.022;6.818;2022-09-20T03:29:17;11.50;99.90
6407;DHT22;3236;51.022;6.818;2022-09-20T03:31:58;11.60;99.90
6407;DHT22;3236;51.022;6.818;2022-09-20T03:34:41;11.40;99.90
6407;DHT22;3236;51.022;6.818;2022-09-20T03:37:20;10.90;99.90
6407;DHT22;3236;51.022;6.818;2022-09-20T03:42:40;11.10;99.90
6407;DHT22;3236;51.022;6.818;2022-09-20T03:45:31;11.40;99.90
6407;DHT22;3236;51.022;6.818;2022-09-20T03:48:24;11.40;99.90
6407;DHT22;3236;51.022;6.818;2022-09-20T03:51:15;11.00;99.90
6407;DHT22;3236;51.022;6.818;2022-09-20T03:54:08;11.90;99.90
6407;DHT22;3236;51.022;6.818;2022-09-20T03:57:05;11.00;99.90
6407;DHT22;3236;51.022;6.818;2022-09-20T04:00:05;11.30;99.90
6407;DHT22;3236;51.022;6.818;2022-09-20T04:02:48;11.40;99.90
6407;DHT22;3236;51.022;6.818;2022-09-20T04:05:26;11.10;99.90
6407;DHT22;3236;51.022;6.818;2022-09-20T04:08:07;11.00;99.90
6407;DHT22;3236;51.022;6.818;2022-09-20T04:10:44;11.20;99.90
6407;DHT22;3236;51.022;6.818;2022-09-20T04:13:26;11.40;99.90
6407;DHT22;3236;51.022;6.818;2022-09-20T04:18:49;11.30;99.90
6407;DHT22;3236;51.022;6.818;2022-09-20T04:21:24;11.30;99.90
6407;DHT22;3236;51.022;6.818;2022-09-20T04:23:58;10.80;99.90
6407;DHT22;3236;51.022;6.818;2022-09-20T04:26:28;11.20;99.90
6407;DHT22;3236;51.022;6.818;2022-09-20T04:29:01;11.50;99.90
6407;DHT22;3236;51.022;6.818;2022-09-20T04:31:38;10.80;99.90
6407;DHT22;3236;51.022;6.818;2022-09-20T04:34:12;11.40;99.90
6407;DHT22;3236;51.022;6.818;2022-09-20T04:36:58;11.00;99.90
6407;DHT22;3236;51.022;6.818;2022-09-20T04:39:37;11.30;99.90
6407;DHT22;3236;51.022;6.818;2022-09-20T04:45:22;11.10;99.90
6407;DHT22;3236;51.022;6.818;2022-09-20T04:51:29;11.40;99.90
6407;DHT22;3236;51.022;6.818;2022-09-20T04:57:15;10.80;99.90
6407;DHT22;3236;51.022;6.818;2022-09-20T05:00:03;11.10;99.90
6407;DHT22;3236;51.022;6.818;2022-09-20T05:03:10;11.50;99.90
6407;DHT22;3236;51.022;6.818;2022-09-20T05:06:00;11.10;99.90
6407;DHT22;3236;51.022;6.818;2022-09-20T05:08:58;10.80;99.90
6407;DHT22;3236;51.022;6.818;2022-09-20T05:11:51;11.10;99.90
6407;DHT22;3236;51.022;6.818;2022-09-20T05:14:44;11.40;99.90
6407;DHT22;3236;51.022;6.818;2022-09-20T05:17:23;11.00;99.90
6407;DHT22;3236;51.022;6.818;2022-09-20T05:23:02;10.80;99.90
6407;DHT22;3236;51.022;6.818;2022-09-20T05:25:46;11.40;99.90
6407;DHT22;3236;51.022;6.818;2022-09-20T05:28:22;11.40;99.90
6407;DHT22;3236;51.022;6.818;2022-09-20T05:30:54;10.80;99.90
6407;DHT22;3236;51.022;6.818;2022-09-20T05:33:31;10.80;99.90
6407;DHT22;3236;51.022;6.818;2022-09-20T05:36:06;11.30;99.90
6407;DHT22;3236;51.022;6.818;2022-09-20T05:38:44;10.90;99.90
6407;DHT22;3236;51.022;6.818;2022-09-20T05:41:21;11.00;99.90
6407;DHT22;3236;51.022;6.818;2022-09-20T05:43:54;11.20;99.90
6407;DHT22;3236;51.022;6.818;2022-09-20T05:46:35;11.50;99.90
6407;DHT22;3236;51.022;6.818;2022-09-20T05:49:15;11.20;99.90
6407;DHT22;3236;51.022;6.818;2022-09-20T05:52:01;11.20;99.90
6407;DHT22;3236;51.022;6.818;2022-09-20T05:55:17;11.10;99.90
6407;DHT22;3236;51.022;6.818;2022-09-20T05:58:02;12.20;99.90
6407;DHT22;3236;51.022;6.818;2022-09-20T06:00:35;11.30;99.90
6407;DHT22;3236;51.022;6.818;2022-09-20T06:03:12;11.20;99.90
6407;DHT22;3236;51.022;6.818;2022-09-20T06:05:54;11.00;99.90
6407;DHT22;3236;51.022;6.818;2022-09-20T06:08:28;11.40;99.90
6407;DHT22;3236;51.022;6.818;2022-09-20T06:11:13;11.10;99.90
6407;DHT22;3236;51.022;6.818;2022-09-20T06:13:59;11.80;99.90
6407;DHT22;3236;51.022;6.818;2022-09-20T06:16:36;11.60;99.90
6407;DHT22;3236;51.022;6.818;2022-09-20T06:19:15;11.50;99.90
6407;DHT22;3236;51.022;6.818;2022-09-20T06:21:50;11.50;99.90
6407;DHT22;3236;51.022;6.818;2022-09-20T06:24:29;11.50;99.90
6407;DHT22;3236;51.022;6.818;2022-09-20T06:27:01;11.70;99.90
6407;DHT22;3236;51.022;6.818;2022-09-20T06:29:30;11.90;99.90
6407;DHT22;3236;51.022;6.818;2022-09-20T06:31:59;11.40;99.90
6407;DHT22;3236;51.022;6.818;2022-09-20T06:34:27;11.50;99.90
6407;DHT22;3236;51.022;6.818;2022-09-20T06:37:05;11.50;99.90
6407;DHT22;3236;51.022;6.818;2022-09-20T06:39:57;11.50;99.90
6407;DHT22;3236;51.022;6.818;2022-09-20T06:42:42;11.50;99.90
6407;DHT22;3236;51.022;6.818;2022-09-20T06:45:10;11.50;99.90
6407;DHT22;3236;51.022;6.818;2022-09-20T06:47:37;11.40;99.90
6407;DHT22;3236;51.022;6.818;2022-09-20T06:50:05;11.90;99.90
6407;DHT22;3236;51.022;6.818;2022-09-20T06:52:33;11.80;99.90
6407;DHT22;3236;51.022;6.818;2022-09-20T06:55:01;11.90;99.90
6407;DHT22;3236;51.022;6.818;2022-09-20T06:57:32;11.90;99.90
6407;DHT22;3236;51.022;6.818;2022-09-20T07:00:01;12.20;99.90
6407;DHT22;3236;51.022;6.818;2022-09-20T07:02:28;12.30;99.90
6407;DHT22;3236;51.022;6.818;2022-09-20T07:04:55;12.40;99.90
6407;DHT22;3236;51.022;6.818;2022-09-20T07:07:23;12.50;99.90
6407;DHT22;3236;51.022;6.818;2022-09-20T07:09:50;12.10;99.90
6407;DHT22;3236;51.022;6.818;2022-09-20T07:12:19;12.30;99.90
6407;DHT22;3236;51.022;6.818;2022-09-20T07:14:46;12.80;99.90
6407;DHT22;3236;51.022;6.818;2022-09-20T07:17:15;12.50;99.90
6407;DHT22;3236;51.022;6.818;2022-09-20T07:19:42;11.30;99.90
6407;DHT22;3236;51.022;6.818;2022-09-20T07:22:09;12.40;99.90
6407;DHT22;3236;51.022;6.818;2022-09-20T07:24:36;12.60;99.90
6407;DHT22;3236;51.022;6.818;2022-09-20T07:27:04;13.00;99.90
6407;DHT22;3236;51.022;6.818;2022-09-20T07:29:32;12.60;99.90
6407;DHT22;3236;51.022;6.818;2022-09-20T07:32:00;13.00;99.90
6407;DHT22;3236;51.022;6.818;2022-09-20T07:34:27;12.60;99.90
6407;DHT22;3236;51.022;6.818;2022-09-20T07:36:55;13.40;99.90
6407;DHT22;3236;51.022;6.818;2022-09-20T07:39:24;13.10;99.90
6407;DHT22;3236;51.022;6.818;2022-09-20T07:41:51;13.30;99.90
6407;DHT22;3236;51.022;6.818;2022-09-20T07:44:18;13.60;99.90
6407;DHT22;3236;51.022;6.818;2022-09-20T07:46:52;13.60;99.90
6407;DHT22;3236;51.022;6.818;2022-09-20T07:51:47;13.50;99.90
6407;DHT22;3236;51.022;6.818;2022-09-20T07:54:15;14.10;99.90
6407;DHT22;3236;51.022;6.818;2022-09-20T07:56:42;13.60;99.90
6407;DHT22;3236;51.022;6.818;2022-09-20T07:59:09;13.50;99.90
6407;DHT22;3236;51.022;6.818;2022-09-20T08:01:36;13.70;99.90
6407;DHT22;3236;51.022;6.818;2022-09-20T08:04:05;13.00;99.90
6407;DHT22;3236;51.022;6.818;2022-09-20T08:06:35;13.30;99.90
6407;DHT22;3236;51.022;6.818;2022-09-20T08:09:02;13.20;99.90
6407;DHT22;3236;51.022;6.818;2022-09-20T08:11:29;13.50;99.90
6407;DHT22;3236;51.022;6.818;2022-09-20T08:13:58;13.80;99.90
6407;DHT22;3236;51.022;6.818;2022-09-20T08:16:26;13.60;99.90
6407;DHT22;3236;51.022;6.818;2022-09-20T08:21:32;14.10;99.90
6407;DHT22;3236;51.022;6.818;2022-09-20T08:24:00;14.00;99.90
6407;DHT22;3236;51.022;6.818;2022-09-20T08:26:29;14.10;99.90
6407;DHT22;3236;51.022;6.818;2022-09-20T08:28:58;14.20;99.90
6407;DHT22;3236;51.022;6.818;2022-09-20T08:31:27;14.60;99.90
6407;DHT22;3236;51.022;6.818;2022-09-20T08:33:56;14.60;99.90
6407;DHT22;3236;51.022;6.818;2022-09-20T08:36:24;14.90;99.90
6407;DHT22;3236;51.022;6.818;2022-09-20T08:38:53;14.70;99.90
6407;DHT22;3236;51.022;6.818;2022-09-20T08:41:23;15.10;99.90
6407;DHT22;3236;51.022;6.818;2022-09-20T08:43:54;15.00;99.90
6407;DHT22;3236;51.022;6.818;2022-09-20T08:46:25;15.00;99.90
6407;DHT22;3236;51.022;6.818;2022-09-20T08:48:53;14.70;99.90
6407;DHT22;3236;51.022;6.818;2022-09-20T08:51:21;15.00;99.90
6407;DHT22;3236;51.022;6.818;2022-09-20T08:53:51;14.70;99.90
6407;DHT22;3236;51.022;6.818;2022-09-20T08:56:20;14.80;99.90
6407;DHT22;3236;51.022;6.818;2022-09-20T08:58:48;14.50;99.90
6407;DHT22;3236;51.022;6.818;2022-09-20T09:01:19;14.70;99.90
6407;DHT22;3236;51.022;6.818;2022-09-20T09:03:49;14.70;99.90
6407;DHT22;3236;51.022;6.818;2022-09-20T09:06:19;14.00;99.90
6407;DHT22;3236;51.022;6.818;2022-09-20T09:08:47;14.20;99.90
6407;DHT22;3236;51.022;6.818;2022-09-20T09:11:19;15.20;99.90
6407;DHT22;3236;51.022;6.818;2022-09-20T09:13:51;14.80;99.90
6407;DHT22;3236;51.022;6.818;2022-09-20T09:16:20;15.00;99.90
6407;DHT22;3236;51.022;6.818;2022-09-20T09:21:19;15.40;99.90
6407;DHT22;3236;51.022;6.818;2022-09-20T09:23:50;15.60;99.90
6407;DHT22;3236;51.022;6.818;2022-09-20T09:26:21;15.20;99.90
6407;DHT22;3236;51.022;6.818;2022-09-20T09:29:14;15.80;99.90
6407;DHT22;3236;51.022;6.818;2022-09-20T09:31:41;15.40;99.90
6407;DHT22;3236;51.022;6.818;2022-09-20T09:34:25;15.10;99.90
6407;DHT22;3236;51.022;6.818;2022-09-20T09:36:54;15.50;99.90
6407;DHT22;3236;51.022;6.818;2022-09-20T09:39:24;15.50;99.90
6407;DHT22;3236;51.022;6.818;2022-09-20T09:41:52;16.20;99.90
6407;DHT22;3236;51.022;6.818;2022-09-20T09:44:22;15.30;99.90
6407;DHT22;3236;51.022;6.818;2022-09-20T09:46:50;15.70;99.90
6407;DHT22;3236;51.022;6.818;2022-09-20T09:49:19;14.90;99.90
6407;DHT22;3236;51.022;6.818;2022-09-20T09:52:11;15.00;99.90
6407;DHT22;3236;51.022;6.818;2022-09-20T09:54:41;15.10;99.90
6407;DHT22;3236;51.022;6.818;2022-09-20T09:57:32;15.10;99.90
6407;DHT22;3236;51.022;6.818;2022-09-20T10:00:08;15.10;99.90
6407;DHT22;3236;51.022;6.818;2022-09-20T10:05:33;15.20;99.90
6407;DHT22;3236;51.022;6.818;2022-09-20T10:08:15;15.50;99.90
6407;DHT22;3236;51.022;6.818;2022-09-20T10:13:31;16.00;99.90
6407;DHT22;3236;51.022;6.818;2022-09-20T10:16:06;16.30;99.90
6407;DHT22;3236;51.022;6.818;2022-09-20T10:18:42;16.30;99.90
6407;DHT22;3236;51.022;6.818;2022-09-20T10:21:22;16.10;99.90
6407;DHT22;3236;51.022;6.818;2022-09-20T10:24:07;16.40;99.90
6407;DHT22;3236;51.022;6.818;2022-09-20T10:26:51;16.60;99.90
6407;DHT22;3236;51.022;6.818;2022-09-20T10:29:32;16.80;99.90
6407;DHT22;3236;51.022;6.818;2022-09-20T10:32:11;15.90;99.90
6407;DHT22;3236;51.022;6.818;2022-09-20T10:37:59;15.50;99.90
6407;DHT22;3236;51.022;6.818;2022-09-20T10:40:32;15.60;99.90
6407;DHT22;3236;51.022;6.818;2022-09-20T10:43:26;15.20;99.90
6407;DHT22;3236;51.022;6.818;2022-09-20T10:46:06;15.50;99.90
6407;DHT22;3236;51.022;6.818;2022-09-20T10:48:41;15.20;99.90
6407;DHT22;3236;51.022;6.818;2022-09-20T10:51:18;14.70;99.90
6407;DHT22;3236;51.022;6.818;2022-09-20T10:53:58;14.90;99.90
6407;DHT22;3236;51.022;6.818;2022-09-20T10:56:34;15.00;99.90
6407;DHT22;3236;51.022;6.818;2022-09-20T10:59:23;14.70;99.90
6407;DHT22;3236;51.022;6.818;2022-09-20T11:02:16;16.80;99.90
6407;DHT22;3236;51.022;6.818;2022-09-20T11:07:52;14.90;99.90
6407;DHT22;3236;51.022;6.818;2022-09-20T11:10:25;14.20;99.90
6407;DHT22;3236;51.022;6.818;2022-09-20T11:12:57;13.80;99.90
6407;DHT22;3236;51.022;6.818;2022-09-20T11:15:29;13.80;99.90
6407;DHT22;3236;51.022;6.818;2022-09-20T11:18:05;12.90;99.90
6407;DHT22;3236;51.022;6.818;2022-09-20T11:20:54;13.00;99.90
6407;DHT22;3236;51.022;6.818;2022-09-20T11:23:43;12.90;99.90
6407;DHT22;3236;51.022;6.818;2022-09-20T11:26:17;13.00;99.90
6407;DHT22;3236;51.022;6.818;2022-09-20T11:28:49;12.70;99.90
6407;DHT22;3236;51.022;6.818;2022-09-20T11:31:23;12.70;99.90
6407;DHT22;3236;51.022;6.818;2022-09-20T11:33:56;12.70;99.90
6407;DHT22;3236;51.022;6.818;2022-09-20T11:36:31;12.30;99.90
6407;DHT22;3236;51.022;6.818;2022-09-20T11:39:10;13.20;99.90
6407;DHT22;3236;51.022;6.818;2022-09-20T11:41:40;13.30;99.90
6407;DHT22;3236;51.022;6.818;2022-09-20T11:44:10;13.30;99.90
6407;DHT22;3236;51.022;6.818;2022-09-20T11:46:44;13.20;99.90
6407;DHT22;3236;51.022;6.818;2022-09-20T11:49:16;13.00;99.90
6407;DHT22;3236;51.022;6.818;2022-09-20T11:52:15;12.90;99.90
6407;DHT22;3236;51.022;6.818;2022-09-20T11:55:17;13.10;99.90
6407;DHT22;3236;51.022;6.818;2022-09-20T11:58:01;13.20;99.90
6407;DHT22;3236;51.022;6.818;2022-09-20T12:00:29;13.60;99.90
6407;DHT22;3236;51.022;6.818;2022-09-20T12:05:32;13.90;99.90
6407;DHT22;3236;51.022;6.818;2022-09-20T12:08:03;14.20;99.90
6407;DHT22;3236;51.022;6.818;2022-09-20T12:10:33;14.50;99.90
6407;DHT22;3236;51.022;6.818;2022-09-20T12:13:03;15.20;99.90
6407;DHT22;3236;51.022;6.818;2022-09-20T12:15:33;15.30;99.90
6407;DHT22;3236;51.022;6.818;2022-09-20T12:18:13;16.20;99.90
6407;DHT22;3236;51.022;6.818;2022-09-20T12:21:07;17.20;99.90
6407;DHT22;3236;51.022;6.818;2022-09-20T12:26:42;17.80;99.90
6407;DHT22;3236;51.022;6.818;2022-09-20T12:32:52;18.40;99.90
6407;DHT22;3236;51.022;6.818;2022-09-20T12:38:59;19.20;99.90
6407;DHT22;3236;51.022;6.818;2022-09-20T12:41:42;19.30;99.90
6407;DHT22;3236;51.022;6.818;2022-09-20T12:44:27;18.70;99.90
6407;DHT22;3236;51.022;6.818;2022-09-20T12:46:56;19.00;99.90
6407;DHT22;3236;51.022;6.818;2022-09-20T12:49:47;18.30;99.90
6407;DHT22;3236;51.022;6.818;2022-09-20T12:52:47;17.70;99.90
6407;DHT22;3236;51.022;6.818;2022-09-20T12:55:46;17.00;99.90
6407;DHT22;3236;51.022;6.818;2022-09-20T12:58:23;17.00;99.90
6407;DHT22;3236;51.022;6.818;2022-09-20T13:01:30;16.50;99.90
6407;DHT22;3236;51.022;6.818;2022-09-20T13:10:25;16.00;99.90
6407;DHT22;3236;51.022;6.818;2022-09-20T13:12:58;15.20;99.90
6407;DHT22;3236;51.022;6.818;2022-09-20T13:15:27;15.60;99.90
6407;DHT22;3236;51.022;6.818;2022-09-20T13:17:58;15.40;99.90
6407;DHT22;3236;51.022;6.818;2022-09-20T13:20:28;15.00;99.90
6407;DHT22;3236;51.022;6.818;2022-09-20T13:22:57;15.50;99.90
6407;DHT22;3236;51.022;6.818;2022-09-20T13:25:24;15.00;99.90
6407;DHT22;3236;51.022;6.818;2022-09-20T13:27:59;15.60;99.90
6407;DHT22;3236;51.022;6.818;2022-09-20T13:30:31;15.60;99.90
6407;DHT22;3236;51.022;6.818;2022-09-20T13:35:53;15.70;99.90
6407;DHT22;3236;51.022;6.818;2022-09-20T13:38:23;15.60;99.90
6407;DHT22;3236;51.022;6.818;2022-09-20T13:40:52;15.30;99.90
6407;DHT22;3236;51.022;6.818;2022-09-20T13:43:26;15.40;99.90
6407;DHT22;3236;51.022;6.818;2022-09-20T13:45:55;15.80;99.90
6407;DHT22;3236;51.022;6.818;2022-09-20T13:48:25;15.80;99.90
6407;DHT22;3236;51.022;6.818;2022-09-20T13:50:54;16.00;99.90
6407;DHT22;3236;51.022;6.818;2022-09-20T13:53:23;15.80;99.90
6407;DHT22;3236;51.022;6.818;2022-09-20T13:55:51;15.90;99.90
6407;DHT22;3236;51.022;6.818;2022-09-20T13:58:21;17.50;99.90
6407;DHT22;3236;51.022;6.818;2022-09-20T14:00:53;18.20;99.90
6407;DHT22;3236;51.022;6.818;2022-09-20T14:03:21;19.20;99.90
6407;DHT22;3236;51.022;6.818;2022-09-20T14:05:50;19.10;99.90
6407;DHT22;3236;51.022;6.818;2022-09-20T14:08:23;20.00;99.90
6407;DHT22;3236;51.022;6.818;2022-09-20T14:11:03;19.20;99.90
6407;DHT22;3236;51.022;6.818;2022-09-20T14:13:34;18.50;99.90
6407;DHT22;3236;51.022;6.818;2022-09-20T14:16:02;19.00;99.90
6407;DHT22;3236;51.022;6.818;2022-09-20T14:18:29;19.50;99.90
6407;DHT22;3236;51.022;6.818;2022-09-20T14:20:56;19.50;99.90
6407;DHT22;3236;51.022;6.818;2022-09-20T14:23:27;20.40;99.90
6407;DHT22;3236;51.022;6.818;2022-09-20T14:26:19;21.10;99.90
6407;DHT22;3236;51.022;6.818;2022-09-20T14:28:46;21.10;99.90
6407;DHT22;3236;51.022;6.818;2022-09-20T14:31:16;21.60;99.90
6407;DHT22;3236;51.022;6.818;2022-09-20T14:33:46;21.50;99.90
6407;DHT22;3236;51.022;6.818;2022-09-20T14:36:18;21.10;99.90
6407;DHT22;3236;51.022;6.818;2022-09-20T14:38:49;22.00;98.80
6407;DHT22;3236;51.022;6.818;2022-09-20T14:41:23;22.20;97.00
6407;DHT22;3236;51.022;6.818;2022-09-20T14:43:53;20.90;97.20
6407;DHT22;3236;51.022;6.818;2022-09-20T14:46:28;21.50;98.30
6407;DHT22;3236;51.022;6.818;2022-09-20T14:49:29;22.40;97.60
6407;DHT22;3236;51.022;6.818;2022-09-20T14:55:00;22.80;95.70
6407;DHT22;3236;51.022;6.818;2022-09-20T14:57:29;23.20;91.50
6407;DHT22;3236;51.022;6.818;2022-09-20T14:59:56;20.30;93.60
6407;DHT22;3236;51.022;6.818;2022-09-20T15:02:24;19.60;96.80
6407;DHT22;3236;51.022;6.818;2022-09-20T15:04:53;18.40;99.90
6407;DHT22;3236;51.022;6.818;2022-09-20T15:07:21;18.80;99.90
6407;DHT22;3236;51.022;6.818;2022-09-20T15:12:18;19.20;99.90
6407;DHT22;3236;51.022;6.818;2022-09-20T15:14:46;18.70;99.90
6407;DHT22;3236;51.022;6.818;2022-09-20T15:17:15;18.80;99.90
6407;DHT22;3236;51.022;6.818;2022-09-20T15:19:42;19.90;99.90
6407;DHT22;3236;51.022;6.818;2022-09-20T15:22:10;20.70;99.90
6407;DHT22;3236;51.022;6.818;2022-09-20T15:24:40;20.70;93.60
6407;DHT22;3236;51.022;6.818;2022-09-20T15:27:09;20.90;95.30
6407;DHT22;3236;51.022;6.818;2022-09-20T15:29:38;20.80;92.70
6407;DHT22;3236;51.022;6.818;2022-09-20T15:32:05;21.50;92.90
6407;DHT22;3236;51.022;6.818;2022-09-20T15:34:35;21.70;91.90
6407;DHT22;3236;51.022;6.818;2022-09-20T15:37:02;22.20;90.30
6407;DHT22;3236;51.022;6.818;2022-09-20T15:39:30;18.80;95.20
6407;DHT22;3236;51.022;6.818;2022-09-20T15:41:57;17.70;98.90
6407;DHT22;3236;51.022;6.818;2022-09-20T15:44:24;17.90;97.40
6407;DHT22;3236;51.022;6.818;2022-09-20T15:46:52;17.10;99.90
6407;DHT22;3236;51.022;6.818;2022-09-20T15:49:19;17.10;99.90
6407;DHT22;3236;51.022;6.818;2022-09-20T15:51:47;17.50;99.90
6407;DHT22;3236;51.022;6.818;2022-09-20T15:54:15;17.60;99.90
6407;DHT22;3236;51.022;6.818;2022-09-20T15:59:10;18.10;99.90
6407;DHT22;3236;51.022;6.818;2022-09-20T16:01:40;18.20;99.90
6407;DHT22;3236;51.022;6.818;2022-09-20T16:04:10;18.00;99.90
6407;DHT22;3236;51.022;6.818;2022-09-20T16:06:39;17.40;99.90
6407;DHT22;3236;51.022;6.818;2022-09-20T16:09:07;17.00;99.90
6407;DHT22;3236;51.022;6.818;2022-09-20T16:11:35;17.40;99.90
6407;DHT22;3236;51.022;6.818;2022-09-20T16:14:03;16.90;99.90
6407;DHT22;3236;51.022;6.818;2022-09-20T16:16:32;17.30;99.90
6407;DHT22;3236;51.022;6.818;2022-09-20T16:18:59;16.80;99.90
6407;DHT22;3236;51.022;6.818;2022-09-20T16:21:47;16.90;99.90
6407;DHT22;3236;51.022;6.818;2022-09-20T16:24:22;16.70;99.90
6407;DHT22;3236;51.022;6.818;2022-09-20T16:26:50;16.40;99.90
6407;DHT22;3236;51.022;6.818;2022-09-20T16:29:17;16.10;99.90
6407;DHT22;3236;51.022;6.818;2022-09-20T16:34:16;16.20;99.90
6407;DHT22;3236;51.022;6.818;2022-09-20T16:36:46;16.20;99.90
6407;DHT22;3236;51.022;6.818;2022-09-20T16:39:16;16.10;99.90
6407;DHT22;3236;51.022;6.818;2022-09-20T16:41:44;16.10;99.90
6407;DHT22;3236;51.022;6.818;2022-09-20T16:44:12;16.20;99.90
6407;DHT22;3236;51.022;6.818;2022-09-20T16:46:41;15.80;99.90
6407;DHT22;3236;51.022;6.818;2022-09-20T16:49:09;16.40;99.90
6407;DHT22;3236;51.022;6.818;2022-09-20T16:51:39;15.90;99.90
6407;DHT22;3236;51.022;6.818;2022-09-20T16:54:09;15.50;99.90
6407;DHT22;3236;51.022;6.818;2022-09-20T16:56:38;16.10;99.90
6407;DHT22;3236;51.022;6.818;2022-09-20T16:59:05;15.80;99.90
6407;DHT22;3236;51.022;6.818;2022-09-20T17:01:33;15.60;99.90
6407;DHT22;3236;51.022;6.818;2022-09-20T17:04:01;15.60;99.90
6407;DHT22;3236;51.022;6.818;2022-09-20T17:06:30;15.80;99.90
6407;DHT22;3236;51.022;6.818;2022-09-20T17:08:58;15.00;99.90
6407;DHT22;3236;51.022;6.818;2022-09-20T17:11:28;15.30;99.90
6407;DHT22;3236;51.022;6.818;2022-09-20T17:13:55;15.60;99.90
6407;DHT22;3236;51.022;6.818;2022-09-20T17:16:25;15.20;99.90
6407;DHT22;3236;51.022;6.818;2022-09-20T17:18:53;14.90;99.90
6407;DHT22;3236;51.022;6.818;2022-09-20T17:21:21;14.90;99.90
6407;DHT22;3236;51.022;6.818;2022-09-20T17:23:49;15.00;99.90
6407;DHT22;3236;51.022;6.818;2022-09-20T17:26:20;15.00;99.90
6407;DHT22;3236;51.022;6.818;2022-09-20T17:28:50;15.10;99.90
6407;DHT22;3236;51.022;6.818;2022-09-20T17:31:19;15.10;99.90
6407;DHT22;3236;51.022;6.818;2022-09-20T17:33:48;14.50;99.90
6407;DHT22;3236;51.022;6.818;2022-09-20T17:36:18;13.90;99.90
6407;DHT22;3236;51.022;6.818;2022-09-20T17:38:51;14.10;99.90
6407;DHT22;3236;51.022;6.818;2022-09-20T17:41:19;14.50;99.90
6407;DHT22;3236;51.022;6.818;2022-09-20T17:43:47;14.20;99.90
6407;DHT22;3236;51.022;6.818;2022-09-20T17:46:17;14.00;99.90
6407;DHT22;3236;51.022;6.818;2022-09-20T17:51:16;13.90;99.90
6407;DHT22;3236;51.022;6.818;2022-09-20T17:53:45;13.70;99.90
6407;DHT22;3236;51.022;6.818;2022-09-20T17:56:13;13.90;99.90
6407;DHT22;3236;51.022;6.818;2022-09-20T17:58:40;13.80;99.90
6407;DHT22;3236;51.022;6.818;2022-09-20T18:01:10;13.40;99.90
6407;DHT22;3236;51.022;6.818;2022-09-20T18:03:41;13.90;99.90
6407;DHT22;3236;51.022;6.818;2022-09-20T18:06:16;13.50;99.90
6407;DHT22;3236;51.022;6.818;2022-09-20T18:08:47;13.70;99.90
6407;DHT22;3236;51.022;6.818;2022-09-20T18:11:15;13.90;99.90
6407;DHT22;3236;51.022;6.818;2022-09-20T18:13:43;13.60;99.90
6407;DHT22;3236;51.022;6.818;2022-09-20T18:16:11;13.70;99.90
6407;DHT22;3236;51.022;6.818;2022-09-20T18:18:41;13.80;99.90
6407;DHT22;3236;51.022;6.818;2022-09-20T18:23:36;14.10;99.90
6407;DHT22;3236;51.022;6.818;2022-09-20T18:26:06;13.90;99.90